Time;durP1;ratioP1;P1;durP2;ratioP2;P2;SDS_P1;SDS_P2;PMS_P1;PMS_P2;Temp;Humidity;BMP_temperature;BMP_pressure;BME280_temperature;BME280_humidity;BME280_pressure;Samples;Min_cycle;Max_cycle;Signal;HPM_P1;HPM_P2
2022/09/12 00:01:22;;;;;;;2.22;1.90;;;;;;;14.41;72.61;99018.84;4934088;29;20056;-69
2022/09/12 00:03:53;;;;;;;2.13;2.03;;;;;;;14.35;72.51;99015.19;4934270;29;20052;-69
2022/09/12 00:06:23;;;;;;;2.65;2.40;;;;;;;14.31;72.57;99006.00;4932547;29;20040;-69
2022/09/12 00:08:52;;;;;;;3.28;2.30;;;;;;;14.28;72.90;99010.91;4931227;29;20115;-69
2022/09/12 00:11:19;;;;;;;2.30;2.10;;;;;;;14.25;72.59;99004.19;4930225;29;20115;-69
2022/09/12 00:13:46;;;;;;;3.88;2.60;;;;;;;14.26;73.07;99005.00;4929783;29;20170;-68
2022/09/12 00:16:21;;;;;;;2.35;2.20;;;;;;;14.22;72.85;98996.63;4928654;29;20044;-69
2022/09/12 00:18:48;;;;;;;3.00;2.17;;;;;;;14.19;72.69;99002.38;4926917;29;20040;-70
2022/09/12 00:21:16;;;;;;;2.42;2.33;;;;;;;14.17;72.91;98998.31;4924857;29;20107;-69
2022/09/12 00:23:44;;;;;;;2.42;2.28;;;;;;;14.16;72.96;98997.47;4923212;29;20056;-70
2022/09/12 00:26:11;;;;;;;2.00;1.90;;;;;;;14.13;73.40;99001.38;4919370;29;20055;-70
2022/09/12 00:28:39;;;;;;;2.55;2.35;;;;;;;14.13;73.14;98995.25;4917418;29;20080;-70
2022/09/12 00:31:08;;;;;;;2.40;2.28;;;;;;;14.10;72.98;98996.47;4916977;29;20051;-69
2022/09/12 00:33:34;;;;;;;2.65;2.00;;;;;;;14.09;73.27;98991.38;4916835;29;20040;-70
2022/09/12 00:36:14;;;;;;;2.30;2.13;;;;;;;14.06;73.10;98989.94;4916773;29;20107;-69
2022/09/12 00:38:42;;;;;;;1.90;1.80;;;;;;;14.02;73.17;98994.03;4916430;29;20047;-70
2022/09/12 00:41:14;;;;;;;2.55;2.05;;;;;;;13.98;73.15;98992.84;4917143;29;20079;-70
2022/09/12 00:43:43;;;;;;;2.38;2.17;;;;;;;13.95;73.28;98992.44;4917570;29;20497;-70
2022/09/12 00:46:16;;;;;;;2.30;2.20;;;;;;;13.91;73.38;98992.03;4917500;29;20056;-70
2022/09/12 00:48:51;;;;;;;2.33;2.13;;;;;;;13.86;73.15;98992.66;4920137;29;20036;-70
2022/09/12 00:51:18;;;;;;;2.00;1.90;;;;;;;13.86;73.67;98984.69;4915786;29;20107;-70
2022/09/12 00:53:47;;;;;;;2.08;1.85;;;;;;;13.88;73.61;98990.63;4917296;29;20489;-69
2022/09/12 00:56:16;;;;;;;1.50;1.40;;;;;;;13.88;73.97;98985.31;4917153;29;20056;-70
2022/09/12 00:58:49;;;;;;;1.20;1.20;;;;;;;13.92;74.33;98988.38;4899981;29;20512;-69
2022/09/12 01:01:16;;;;;;;1.25;1.13;;;;;;;13.94;73.95;98988.97;4917393;29;20108;-70
2022/09/12 01:03:43;;;;;;;1.15;1.00;;;;;;;13.96;73.96;98991.41;4917017;29;20440;-69
2022/09/12 01:06:16;;;;;;;1.50;1.00;;;;;;;13.96;73.87;98986.09;4917553;29;20612;-69
2022/09/12 01:08:45;;;;;;;0.90;0.90;;;;;;;13.97;73.64;98985.09;4929258;29;20052;-70
2022/09/12 01:11:14;;;;;;;1.30;1.20;;;;;;;13.95;73.68;98982.63;4932166;29;20075;-69
2022/09/12 01:13:42;;;;;;;1.60;1.50;;;;;;;13.88;72.63;98973.88;4932943;29;20069;-70
2022/09/12 01:16:09;;;;;;;2.05;1.80;;;;;;;13.78;73.27;98976.13;4933829;29;20055;-70
2022/09/12 01:19:00;;;;;;;2.90;2.28;;;;;;;13.72;73.08;98975.13;4919922;29;20135;-69
2022/09/12 01:21:42;;;;;;;2.10;2.00;;;;;;;13.69;73.49;98970.22;4918967;29;20100;-69
2022/09/12 01:24:18;;;;;;;1.88;1.77;;;;;;;13.68;73.41;98971.28;4919123;29;20044;-69
2022/09/12 01:27:13;;;;;;;3.28;1.50;;;;;;;13.68;73.57;98973.94;4918558;29;20084;-69
2022/09/12 01:30:04;;;;;;;1.52;1.42;;;;;;;13.68;73.90;98970.47;4919873;29;20060;-69
2022/09/12 01:32:45;;;;;;;2.03;1.92;;;;;;;13.61;73.26;98965.97;4919171;29;20388;-69
2022/09/12 01:35:27;;;;;;;1.88;1.77;;;;;;;13.58;73.99;98968.22;4912375;29;20036;-69
2022/09/12 01:38:05;;;;;;;1.40;1.30;;;;;;;13.59;74.26;98969.84;4919146;29;20453;-69
2022/09/12 01:40:37;;;;;;;2.03;1.25;;;;;;;13.57;73.94;98975.38;4919253;29;20393;-69
2022/09/12 01:43:30;;;;;;;1.65;1.50;;;;;;;13.54;73.98;98967.81;4919178;29;20091;-69
2022/09/12 01:46:12;;;;;;;1.50;1.40;;;;;;;13.51;74.04;98962.94;4919160;29;20055;-69
2022/09/12 01:48:46;;;;;;;1.38;1.27;;;;;;;13.48;74.14;98965.19;4919098;29;20504;-69
2022/09/12 01:51:26;;;;;;;1.48;1.38;;;;;;;13.47;73.77;98955.56;4917584;29;20060;-69
2022/09/12 01:54:05;;;;;;;2.72;1.80;;;;;;;13.48;73.90;98959.88;4918921;29;20043;-69
2022/09/12 01:56:37;;;;;;;2.42;2.22;;;;;;;13.40;73.22;98960.91;4918646;29;20056;-69
2022/09/12 01:59:09;;;;;;;3.53;2.20;;;;;;;13.33;73.86;98954.78;4919020;29;20096;-69
2022/09/12 02:01:45;;;;;;;2.65;2.38;;;;;;;13.29;74.01;98951.72;4918846;29;20044;-69
2022/09/12 02:04:17;;;;;;;1.90;1.80;;;;;;;13.30;74.06;98953.34;4911419;29;20032;-69
2022/09/12 02:06:51;;;;;;;1.70;1.60;;;;;;;13.30;74.31;98952.53;4917177;29;20059;-69
2022/09/12 02:09:25;;;;;;;1.67;1.58;;;;;;;13.32;74.48;98945.19;4917520;29;20057;-69
2022/09/12 02:11:57;;;;;;;1.60;1.50;;;;;;;13.33;74.12;98949.47;4917430;29;20564;-69
2022/09/12 02:14:28;;;;;;;3.13;2.40;;;;;;;13.30;74.08;98948.03;4902002;29;20476;-69
2022/09/12 02:17:00;;;;;;;2.95;2.40;;;;;;;13.25;73.69;98945.19;4917532;29;20052;-70
2022/09/12 02:19:36;;;;;;;2.67;2.47;;;;;;;13.20;74.10;98938.84;4918522;29;20044;-70
2022/09/12 02:22:04;;;;;;;2.78;2.55;;;;;;;13.13;74.13;98942.31;4917216;29;20059;-68
2022/09/12 02:24:38;;;;;;;2.55;2.35;;;;;;;13.10;74.23;98936.59;4918028;29;20444;-68
2022/09/12 02:27:15;;;;;;;3.25;2.50;;;;;;;13.09;74.02;98937.63;4917360;29;20500;-68
2022/09/12 02:29:43;;;;;;;3.00;2.80;;;;;;;13.06;74.16;98938.03;4918234;29;20500;-69
2022/09/12 02:32:14;;;;;;;3.60;2.85;;;;;;;13.03;74.52;98941.91;4917040;29;20492;-69
2022/09/12 02:34:58;;;;;;;3.35;3.00;;;;;;;13.02;74.41;98940.28;4916870;29;20066;-69
2022/09/12 02:37:37;;;;;;;2.60;2.40;;;;;;;12.97;74.33;98934.75;4897785;29;20055;-70
2022/09/12 02:40:05;;;;;;;3.10;2.80;;;;;;;12.93;74.41;98936.19;4900298;29;20112;-69
2022/09/12 02:42:32;;;;;;;2.90;2.55;;;;;;;12.91;74.46;98937.44;4901201;29;20041;-69
2022/09/12 02:44:59;;;;;;;1.77;1.67;;;;;;;12.85;74.69;98931.09;4900498;29;20045;-69
2022/09/12 02:47:31;;;;;;;1.98;1.88;;;;;;;12.84;74.73;98940.06;4897700;29;20556;-70
2022/09/12 02:49:58;;;;;;;2.15;1.73;;;;;;;12.83;74.60;98938.44;4898925;29;20040;-70
2022/09/12 02:52:27;;;;;;;3.05;2.00;;;;;;;12.83;74.98;98927.84;4899216;29;20091;-70
2022/09/12 02:54:56;;;;;;;3.15;2.10;;;;;;;12.83;74.40;98925.19;4898934;29;20092;-70
2022/09/12 02:57:23;;;;;;;2.80;2.60;;;;;;;12.82;74.32;98929.69;4897301;29;20052;-69
2022/09/12 02:59:57;;;;;;;2.80;2.35;;;;;;;12.78;74.28;98931.09;4897711;29;20566;-68
2022/09/12 03:02:52;;;;;;;2.47;2.28;;;;;;;12.76;74.28;98927.00;4905333;29;20048;-69
2022/09/12 03:05:28;;;;;;;2.50;2.30;;;;;;;12.73;74.85;98924.75;4910068;29;20044;-69
2022/09/12 03:08:21;;;;;;;2.58;2.38;;;;;;;12.72;74.61;98920.47;4916717;29;20544;-69
2022/09/12 03:11:04;;;;;;;2.08;1.98;;;;;;;12.71;74.99;98918.84;4918378;29;20512;-69
2022/09/12 03:13:31;;;;;;;2.55;2.35;;;;;;;12.72;74.90;98920.47;4918095;29;20498;-69
2022/09/12 03:15:57;;;;;;;2.60;2.40;;;;;;;12.71;74.72;98919.66;4917319;29;20044;-69
2022/09/12 03:18:45;;;;;;;2.95;2.42;;;;;;;12.70;74.43;98918.03;4916104;29;20099;-69
2022/09/12 03:21:41;;;;;;;2.17;2.05;;;;;;;12.67;74.60;98920.28;4917294;29;20052;-69
2022/09/12 03:24:23;;;;;;;3.75;2.38;;;;;;;12.64;74.69;98922.31;4917415;29;20037;-69
2022/09/12 03:26:53;;;;;;;1.92;1.80;;;;;;;12.62;74.97;98911.09;4915722;29;20563;-69
2022/09/12 03:29:22;;;;;;;1.98;1.85;;;;;;;12.64;75.08;98913.53;4916337;29;20059;-70
2022/09/12 03:31:57;;;;;;;1.92;1.60;;;;;;;12.65;74.63;98917.81;4916326;29;20048;-70
2022/09/12 03:34:25;;;;;;;2.40;1.60;;;;;;;12.67;74.80;98920.28;4917400;29;20103;-70
2022/09/12 03:36:56;;;;;;;2.40;2.28;;;;;;;12.66;74.24;98927.44;4915635;29;20129;-70
2022/09/12 03:39:25;;;;;;;2.08;1.95;;;;;;;12.60;74.38;98918.41;4916059;29;20044;-69
2022/09/12 03:41:52;;;;;;;2.25;2.10;;;;;;;12.53;74.20;98914.13;4916221;29;20115;-69
2022/09/12 03:44:19;;;;;;;2.00;1.90;;;;;;;12.46;74.63;98911.50;4900345;29;20048;-69
2022/09/12 03:46:46;;;;;;;1.85;1.75;;;;;;;12.46;74.83;98915.97;4916961;29;20056;-69
2022/09/12 03:49:12;;;;;;;2.20;2.10;;;;;;;12.45;74.79;98912.50;4917391;29;20044;-69
2022/09/12 03:51:39;;;;;;;2.13;2.03;;;;;;;12.43;74.49;98916.38;4916344;29;20096;-69
2022/09/12 03:54:06;;;;;;;2.13;2.03;;;;;;;12.40;74.52;98917.56;4916980;29;20058;-70
2022/09/12 03:56:33;;;;;;;1.88;1.77;;;;;;;12.36;75.05;98917.16;4915989;29;20107;-70
2022/09/12 03:58:59;;;;;;;2.08;1.50;;;;;;;12.37;75.57;98913.50;4916790;29;20051;-70
2022/09/12 04:01:26;;;;;;;1.73;1.63;;;;;;;12.40;75.11;98922.88;5362321;23;20129;-68
2022/09/12 04:03:53;;;;;;;1.67;1.58;;;;;;;12.40;75.33;98921.03;4878030;29;20057;-67
2022/09/12 04:06:21;;;;;;;1.40;1.30;;;;;;;12.44;75.41;98916.16;4879335;29;20063;-68
2022/09/12 04:08:51;;;;;;;1.10;1.10;;;;;;;12.47;75.00;98921.06;4882010;29;20049;-67
2022/09/12 04:11:19;;;;;;;1.65;1.52;;;;;;;12.49;75.06;98919.03;4885350;29;20112;-68
2022/09/12 04:13:46;;;;;;;1.85;1.75;;;;;;;12.50;75.23;98911.91;4887330;29;20045;-68
2022/09/12 04:16:14;;;;;;;1.40;1.30;;;;;;;12.49;74.97;98915.53;4882730;29;20545;-68
2022/09/12 04:18:42;;;;;;;2.20;2.00;;;;;;;12.47;74.54;98922.91;4882209;29;20469;-68
2022/09/12 04:21:20;;;;;;;2.47;2.17;;;;;;;12.39;74.16;98913.31;4881173;29;20121;-69
2022/09/12 04:23:47;;;;;;;3.40;3.10;;;;;;;12.34;74.37;98911.25;4879573;29;20104;-68
2022/09/12 04:26:16;;;;;;;2.67;2.47;;;;;;;12.29;74.65;98903.09;4879822;29;20041;-69
2022/09/12 04:28:45;;;;;;;2.80;2.47;;;;;;;12.25;74.95;98909.81;4881412;29;20052;-70
2022/09/12 04:31:16;;;;;;;2.58;2.13;;;;;;;12.24;74.65;98905.50;4880627;29;20052;-69
2022/09/12 04:33:44;;;;;;;2.42;2.08;;;;;;;12.23;74.67;98911.03;4870932;29;20053;-70
2022/09/12 04:36:16;;;;;;;2.85;2.38;;;;;;;12.19;74.67;98904.50;4879714;29;20078;-69
2022/09/12 04:38:44;;;;;;;3.28;2.60;;;;;;;12.18;74.82;98916.13;4878771;29;20420;-69
2022/09/12 04:41:14;;;;;;;2.50;2.30;;;;;;;12.14;75.02;98905.91;4878800;29;20390;-69
2022/09/12 04:43:42;;;;;;;2.83;2.63;;;;;;;12.13;74.93;98906.94;4878649;29;20546;-69
2022/09/12 04:46:10;;;;;;;2.08;1.98;;;;;;;12.13;75.14;98906.13;4878955;29;20399;-69
2022/09/12 04:48:37;;;;;;;1.95;1.80;;;;;;;12.13;75.22;98911.41;4881148;29;20148;-69
2022/09/12 04:51:22;;;;;;;3.83;2.60;;;;;;;12.14;75.17;98902.44;4881321;29;20080;-69
2022/09/12 04:53:51;;;;;;;2.00;1.90;;;;;;;12.12;74.48;98902.66;4869027;29;20061;-69
2022/09/12 04:56:18;;;;;;;2.50;2.20;;;;;;;12.12;74.79;98902.66;4880935;29;20064;-69
2022/09/12 04:58:45;;;;;;;2.78;1.80;;;;;;;12.14;75.08;98905.09;4879976;29;20053;-69
2022/09/12 05:01:18;;;;;;;1.95;1.70;;;;;;;12.14;74.68;98897.16;4880251;29;20053;-70
2022/09/12 05:03:45;;;;;;;2.63;2.42;;;;;;;12.14;74.36;98897.97;4870456;29;20045;-69
2022/09/12 05:06:21;;;;;;;2.60;2.40;;;;;;;12.11;74.05;98898.34;4883840;29;20049;-68
2022/09/12 05:08:47;;;;;;;2.70;2.50;;;;;;;12.07;74.12;98901.59;4878741;29;20558;-69
2022/09/12 05:11:18;;;;;;;3.95;2.55;;;;;;;12.05;74.35;98893.88;4877144;29;20513;-69
2022/09/12 05:13:50;;;;;;;3.00;2.80;;;;;;;12.02;73.93;98893.44;4877470;29;20117;-70
2022/09/12 05:16:18;;;;;;;3.20;2.90;;;;;;;11.99;74.16;98904.44;4892525;29;20049;-69
2022/09/12 05:18:45;;;;;;;3.08;2.38;;;;;;;11.98;74.61;98900.16;4877447;29;20494;-68
2022/09/12 05:21:15;;;;;;;2.72;2.03;;;;;;;12.01;74.90;98897.94;4877601;29;20481;-68
2022/09/12 05:23:42;;;;;;;2.30;2.10;;;;;;;12.08;74.69;98896.13;4881740;29;20316;-69
2022/09/12 05:26:13;;;;;;;3.30;2.55;;;;;;;12.12;74.63;98888.56;4883476;29;20187;-68
2022/09/12 05:28:40;;;;;;;2.97;2.65;;;;;;;12.15;74.40;98894.28;4878921;29;20136;-68
2022/09/12 05:31:11;;;;;;;2.80;2.60;;;;;;;12.18;73.78;98900.22;4878400;29;20127;-68
2022/09/12 05:33:40;;;;;;;2.75;2.55;;;;;;;12.21;73.81;98905.13;4887293;29;20061;-68
2022/09/12 05:36:10;;;;;;;3.03;2.83;;;;;;;12.23;73.61;98895.94;4882845;29;20125;-69
2022/09/12 05:38:37;;;;;;;3.33;3.10;;;;;;;12.26;73.66;98905.34;4901467;29;20055;-69
2022/09/12 05:41:06;;;;;;;3.28;2.95;;;;;;;12.30;73.64;98907.38;4882482;29;20060;-68
2022/09/12 05:43:33;;;;;;;3.35;3.05;;;;;;;12.35;73.41;98904.13;4880610;29;20064;-68
2022/09/12 05:46:09;;;;;;;3.13;2.83;;;;;;;12.38;73.76;98907.19;4878424;29;20045;-68
2022/09/12 05:48:36;;;;;;;2.45;2.25;;;;;;;12.43;73.74;98903.94;4877184;29;20057;-68
2022/09/12 05:51:06;;;;;;;3.63;2.78;;;;;;;12.52;73.65;98909.84;4876766;29;20061;-68
2022/09/12 05:53:34;;;;;;;2.53;2.33;;;;;;;12.60;73.79;98910.47;4876801;29;20086;-69
2022/09/12 05:56:05;;;;;;;2.30;2.20;;;;;;;12.69;72.99;98910.28;4892134;29;20052;-68
2022/09/12 05:58:33;;;;;;;3.75;3.22;;;;;;;12.73;72.85;98909.66;4876904;29;20082;-69
2022/09/12 06:01:02;;;;;;;3.83;3.08;;;;;;;12.80;73.09;98904.34;4880694;29;20045;-68
2022/09/12 06:03:29;;;;;;;3.40;3.20;;;;;;;12.87;72.81;98908.66;4889411;29;20053;-69
2022/09/12 06:05:55;;;;;;;3.63;2.78;;;;;;;12.97;72.82;98902.09;4879411;29;20128;-68
2022/09/12 06:08:22;;;;;;;2.38;2.28;;;;;;;13.05;72.75;98905.34;4879702;29;20136;-69
2022/09/12 06:10:48;;;;;;;2.90;2.60;;;;;;;13.13;72.89;98905.16;4880119;29;20477;-69
2022/09/12 06:13:15;;;;;;;3.08;2.80;;;;;;;13.23;72.36;98904.78;4880856;29;20101;-69
2022/09/12 06:15:42;;;;;;;2.88;2.67;;;;;;;13.33;72.19;98907.00;4880144;29;20100;-69
2022/09/12 06:18:08;;;;;;;3.58;3.28;;;;;;;13.40;71.77;98907.78;4879677;29;20049;-69
2022/09/12 06:20:35;;;;;;;3.13;2.88;;;;;;;13.46;71.65;98906.94;4879996;29;20117;-69
2022/09/12 06:23:02;;;;;;;3.30;3.00;;;;;;;13.56;71.68;98906.53;4879734;29;20136;-69
2022/09/12 06:25:28;;;;;;;2.67;2.47;;;;;;;13.65;71.61;98899.16;4879568;29;20045;-69
2022/09/12 06:27:55;;;;;;;2.80;2.53;;;;;;;13.75;71.91;98899.50;4894999;29;20053;-69
2022/09/12 06:30:22;;;;;;;2.65;2.45;;;;;;;13.86;71.54;98899.66;4864182;29;20095;-69
2022/09/12 06:32:51;;;;;;;2.75;2.55;;;;;;;13.99;71.14;98908.59;4878241;29;20060;-69
2022/09/12 06:35:17;;;;;;;2.10;2.00;;;;;;;14.11;70.99;98910.38;4872922;29;20501;-69
2022/09/12 06:37:44;;;;;;;2.30;2.10;;;;;;;14.22;71.21;98918.72;4879274;29;20060;-68
2022/09/12 06:40:11;;;;;;;1.80;1.70;;;;;;;14.34;70.80;98904.53;4879542;29;20045;-68
2022/09/12 06:42:38;;;;;;;2.97;2.70;;;;;;;14.44;70.62;98914.69;4879360;29;20128;-67
2022/09/12 06:45:05;;;;;;;5.10;2.78;;;;;;;14.54;70.46;98914.25;4879818;29;20136;-69
2022/09/12 06:47:31;;;;;;;3.33;3.03;;;;;;;14.62;70.36;98919.31;4879005;29;20148;-69
2022/09/12 06:49:58;;;;;;;4.10;3.70;;;;;;;14.69;69.77;98912.06;4880241;29;20045;-69
2022/09/12 06:52:25;;;;;;;3.08;2.78;;;;;;;14.75;70.11;98908.56;4878992;29;20138;-69
2022/09/12 06:54:51;;;;;;;6.38;5.47;;;;;;;14.83;69.58;98902.16;4879029;29;20093;-69
2022/09/12 06:57:18;;;;;;;6.13;5.03;;;;;;;14.90;69.80;98905.59;4894599;29;20065;-69
2022/09/12 06:59:45;;;;;;;5.10;4.60;;;;;;;14.95;69.53;98899.59;4880385;29;20413;-69
2022/09/12 07:02:11;;;;;;;5.47;4.30;;;;;;;15.01;69.57;98899.53;4878703;29;20045;-69
2022/09/12 07:04:38;;;;;;;4.20;3.80;;;;;;;15.10;69.73;98897.41;4871190;29;20085;-69
2022/09/12 07:07:04;;;;;;;4.35;3.80;;;;;;;15.19;69.48;98892.63;4878804;29;20053;-69
2022/09/12 07:09:31;;;;;;;2.72;2.40;;;;;;;15.29;69.66;98896.41;4878940;29;20081;-69
2022/09/12 07:11:58;;;;;;;2.97;2.78;;;;;;;15.40;69.37;98891.38;4878252;29;20072;-69
2022/09/12 07:14:24;;;;;;;2.92;2.72;;;;;;;15.51;69.20;98882.63;4879167;29;20045;-69
2022/09/12 07:16:51;;;;;;;1.95;1.85;;;;;;;15.65;69.34;98883.34;4880111;29;20064;-69
2022/09/12 07:19:18;;;;;;;2.80;2.58;;;;;;;15.77;69.49;98879.69;4879882;29;20049;-69
2022/09/12 07:21:45;;;;;;;2.92;2.72;;;;;;;15.90;69.22;98881.38;4880008;29;20398;-70
2022/09/12 07:24:11;;;;;;;3.60;3.30;;;;;;;16.00;69.30;98879.00;4879901;29;20049;-69
2022/09/12 07:26:39;;;;;;;3.08;2.88;;;;;;;16.11;69.01;98882.72;4894142;29;20414;-69
2022/09/12 07:29:08;;;;;;;4.00;3.60;;;;;;;16.25;68.87;98881.53;4878763;29;20119;-69
2022/09/12 07:31:54;;;;;;;4.10;3.70;;;;;;;16.40;68.98;98885.59;4880167;29;20107;-68
2022/09/12 07:34:21;;;;;;;3.90;3.60;;;;;;;16.53;68.87;98890.75;4872738;29;20593;-68
2022/09/12 07:36:48;;;;;;;4.63;4.22;;;;;;;16.64;68.60;98891.81;4880449;29;20109;-68
2022/09/12 07:39:15;;;;;;;4.70;4.22;;;;;;;16.75;68.83;98899.06;4880368;29;20048;-68
2022/09/12 07:41:41;;;;;;;5.40;4.90;;;;;;;16.85;68.29;98899.28;4878786;29;20057;-68
2022/09/12 07:44:08;;;;;;;5.25;4.75;;;;;;;16.93;68.53;98898.16;4883448;29;20049;-69
2022/09/12 07:46:35;;;;;;;4.32;4.00;;;;;;;17.00;68.46;98897.00;4881998;29;20047;-69
2022/09/12 07:49:02;;;;;;;5.07;4.68;;;;;;;17.10;68.24;98899.06;4885401;29;20052;-68
2022/09/12 07:51:29;;;;;;;5.40;4.95;;;;;;;17.19;68.20;98895.03;4893591;29;20494;-69
2022/09/12 07:53:57;;;;;;;4.72;4.32;;;;;;;17.27;68.03;98892.00;4892646;29;20048;-68
2022/09/12 07:56:25;;;;;;;5.00;4.60;;;;;;;17.38;67.67;98893.03;4911888;29;20053;-68
2022/09/12 07:58:57;;;;;;;5.07;4.65;;;;;;;17.48;67.47;98887.91;4899470;29;20060;-69
2022/09/12 08:01:25;;;;;;;5.50;5.00;;;;;;;17.56;67.40;98890.22;4900868;29;20037;-68
2022/09/12 08:03:56;;;;;;;5.10;4.57;;;;;;;17.64;67.04;98882.88;4886533;29;20087;-68
2022/09/12 08:06:25;;;;;;;5.25;4.85;;;;;;;17.73;66.68;98889.47;4864542;29;20065;-69
2022/09/12 08:08:54;;;;;;;4.32;3.92;;;;;;;17.80;66.84;98890.19;4864062;29;20049;-69
2022/09/12 08:11:22;;;;;;;4.57;4.18;;;;;;;17.90;66.50;98890.38;4860442;29;20374;-68
2022/09/12 08:13:50;;;;;;;4.50;4.10;;;;;;;18.02;66.90;98893.81;4860053;29;20065;-68
2022/09/12 08:16:26;;;;;;;4.30;4.00;;;;;;;18.15;66.36;98887.38;4859441;29;20045;-68
2022/09/12 08:18:53;;;;;;;4.72;4.32;;;;;;;18.27;66.15;98893.47;4874486;29;20177;-68
2022/09/12 08:21:22;;;;;;;5.47;4.50;;;;;;;18.39;65.75;98892.63;4859236;29;20533;-68
2022/09/12 08:23:54;;;;;;;4.72;4.32;;;;;;;18.52;65.68;98889.63;4844194;29;20462;-67
2022/09/12 08:26:22;;;;;;;6.60;4.88;;;;;;;18.64;65.23;98895.72;4860278;29;20049;-68
2022/09/12 08:28:49;;;;;;;3.92;3.63;;;;;;;18.72;65.36;98891.88;4860445;29;20050;-65
2022/09/12 08:31:19;;;;;;;3.90;3.60;;;;;;;18.79;64.85;98885.28;4860122;29;20068;-68
2022/09/12 08:33:45;;;;;;;3.40;3.20;;;;;;;18.85;64.60;98886.16;4866521;29;20053;-67
2022/09/12 08:36:21;;;;;;;2.95;2.70;;;;;;;18.97;64.76;98872.69;4860126;29;20050;-67
2022/09/12 08:38:50;;;;;;;4.40;4.00;;;;;;;19.12;63.96;98885.50;4859133;29;20073;-67
2022/09/12 08:41:16;;;;;;;4.10;3.80;;;;;;;19.22;63.84;98889.13;4858859;29;20053;-67
2022/09/12 08:44:08;;;;;;;4.13;3.83;;;;;;;19.34;63.41;98889.03;4858750;29;20064;-67
2022/09/12 08:47:06;;;;;;;4.30;3.78;;;;;;;19.47;63.10;98887.84;4859849;29;20041;-68
2022/09/12 08:49:51;;;;;;;3.58;3.28;;;;;;;19.63;63.13;98891.56;4854560;29;20053;-68
2022/09/12 08:52:25;;;;;;;5.78;4.20;;;;;;;19.76;62.37;98892.03;4860149;29;20458;-67
2022/09/12 08:54:55;;;;;;;4.90;4.13;;;;;;;19.87;62.00;98887.59;4858953;29;20060;-67
2022/09/12 08:57:23;;;;;;;4.35;3.97;;;;;;;20.00;61.98;98884.53;4858494;29;20045;-67
2022/09/12 08:59:50;;;;;;;3.47;3.17;;;;;;;20.14;61.61;98881.44;4859883;29;20060;-68
2022/09/12 09:02:19;;;;;;;3.90;3.60;;;;;;;20.31;61.16;98887.50;4859546;29;20559;-67
2022/09/12 09:04:51;;;;;;;3.60;3.38;;;;;;;20.44;60.77;98883.59;4867647;29;20444;-68
2022/09/12 09:07:46;;;;;;;3.85;3.47;;;;;;;20.57;60.41;98882.41;4858512;29;20177;-67
2022/09/12 09:10:36;;;;;;;2.90;2.70;;;;;;;20.74;60.02;98880.41;4858856;29;20414;-68
2022/09/12 09:16:45;;;;;;;2.90;2.70;;;;;;;21.17;58.93;98881.22;4858565;29;20459;-69
2022/09/12 09:19:17;;;;;;;3.03;2.83;;;;;;;21.30;58.01;98880.75;4858798;29;20068;-69
2022/09/12 09:21:53;;;;;;;2.90;2.70;;;;;;;21.33;57.48;98884.84;4858426;29;20430;-69
2022/09/12 09:24:25;;;;;;;3.30;3.10;;;;;;;21.37;57.29;98880.56;4858461;29;20422;-69
2022/09/12 09:27:00;;;;;;;3.03;2.83;;;;;;;21.42;56.81;98873.34;4858683;29;20060;-68
2022/09/12 09:29:35;;;;;;;3.30;3.00;;;;;;;21.50;56.52;98872.03;4858641;29;20404;-68
2022/09/12 09:32:09;;;;;;;2.92;2.72;;;;;;;21.61;56.45;98867.50;4859709;29;20098;-69
2022/09/12 09:34:37;;;;;;;;;;;;;;;21.69;56.09;98867.00;4870393;29;20060;-69
2022/09/12 09:37:13;;;;;;;2.70;2.50;;;;;;;21.81;56.02;98861.41;4882340;29;19923;-69
2022/09/12 09:39:52;;;;;;;2.97;2.78;;;;;;;21.93;55.09;98861.97;4880626;29;20056;-69
2022/09/12 09:42:24;;;;;;;2.63;2.42;;;;;;;22.04;55.33;98866.28;4880399;29;20061;-68
2022/09/12 09:44:53;;;;;;;2.28;2.17;;;;;;;22.18;54.73;98861.25;4882902;29;20101;-69
2022/09/12 09:47:20;;;;;;;2.70;2.50;;;;;;;22.28;54.30;98853.19;4887207;29;20041;-69
2022/09/12 09:49:47;;;;;;;2.38;2.22;;;;;;;22.42;54.12;98862.34;4888765;29;20053;-68
2022/09/12 09:52:16;;;;;;;2.53;2.35;;;;;;;22.48;53.16;98849.69;4890653;29;20074;-68
2022/09/12 09:54:52;;;;;;;2.75;2.55;;;;;;;22.53;52.79;98848.88;4890521;29;20117;-68
2022/09/12 09:57:39;;;;;;;20.35;5.20;;;;;;;22.53;51.84;98840.78;4889551;29;20041;-68
2022/09/12 10:00:20;;;;;;;4.15;2.60;;;;;;;22.53;52.13;98841.59;4897561;29;20057;-68
2022/09/12 10:03:25;;;;;;;2.53;2.33;;;;;;;22.53;51.89;98836.22;4872361;29;20058;-69
2022/09/12 10:05:55;;;;;;;2.30;2.20;;;;;;;22.52;51.66;98834.59;4868888;29;20045;-68
2022/09/12 10:08:27;;;;;;;2.58;2.38;;;;;;;22.53;51.54;98824.63;4880288;29;20104;-68
2022/09/12 10:11:15;;;;;;;2.53;1.95;;;;;;;22.57;51.32;98821.13;4880109;29;20037;-69
2022/09/12 10:13:53;;;;;;;3.47;2.20;;;;;;;22.69;50.99;98812.78;4881451;29;20045;-69
2022/09/12 10:16:27;;;;;;;2.22;2.03;;;;;;;22.74;50.70;98813.59;4927014;23;20045;-67
2022/09/12 10:18:57;;;;;;;2.47;2.28;;;;;;;22.68;50.40;98814.66;4917033;29;20055;-68
2022/09/12 10:21:38;;;;;;;2.10;2.00;;;;;;;22.72;50.84;98804.94;4917313;29;20052;-68
2022/09/12 10:24:25;;;;;;;2.50;2.30;;;;;;;22.82;49.96;98803.31;4917354;29;20052;-68
2022/09/12 10:26:55;;;;;;;2.38;2.00;;;;;;;22.93;50.22;98805.75;4898371;29;20044;-68
2022/09/12 10:29:30;;;;;;;2.63;2.42;;;;;;;23.03;49.94;98801.44;4899587;29;20463;-69
2022/09/12 10:32:02;;;;;;;2.55;2.35;;;;;;;23.05;49.59;98808.16;4883016;29;20056;-68
2022/09/12 10:34:34;;;;;;;2.22;2.05;;;;;;;23.21;49.85;98804.31;4898096;29;20076;-69
2022/09/12 10:37:06;;;;;;;1.80;1.70;;;;;;;23.33;49.35;98804.00;4882567;29;20493;-68
2022/09/12 10:39:35;;;;;;;1.77;1.67;;;;;;;23.43;48.59;98804.00;4899369;29;20090;-68
2022/09/12 10:42:04;;;;;;;1.70;1.60;;;;;;;23.53;48.45;98792.34;4898099;29;20523;-68
2022/09/12 10:44:33;;;;;;;1.70;1.60;;;;;;;23.66;47.98;98785.53;4898227;29;20123;-68
2022/09/12 10:47:19;;;;;;;1.52;1.42;;;;;;;23.70;46.42;98792.00;4896845;29;20468;-68
2022/09/12 10:49:46;;;;;;;1.75;1.65;;;;;;;23.73;47.47;98794.94;4882438;29;20056;-68
2022/09/12 10:52:23;;;;;;;1.90;1.80;;;;;;;23.67;47.00;98787.97;4898982;29;20097;-69
2022/09/12 10:54:51;;;;;;;2.17;2.03;;;;;;;23.81;47.28;98787.38;4897749;29;20556;-68
2022/09/12 10:57:23;;;;;;;1.80;1.70;;;;;;;23.92;46.98;98786.19;4882012;29;20049;-68
2022/09/12 11:00:12;;;;;;;1.65;1.55;;;;;;;23.97;46.24;98786.19;4882333;29;20057;-68
2022/09/12 11:02:49;;;;;;;1.50;1.40;;;;;;;23.96;46.50;98784.53;4898692;29;20122;-68
2022/09/12 11:05:35;;;;;;;2.30;2.10;;;;;;;24.00;46.20;98776.69;4892322;29;20040;-68
2022/09/12 11:08:42;;;;;;;3.40;1.80;;;;;;;24.02;45.78;98778.03;4881891;29;20049;-69
2022/09/12 11:11:17;;;;;;;1.60;1.50;;;;;;;24.03;45.69;98778.84;4897830;29;20051;-68
2022/09/12 11:13:57;;;;;;;1.38;1.38;;;;;;;23.98;45.84;98764.28;4898765;29;20390;-68
2022/09/12 11:16:40;;;;;;;1.60;1.50;;;;;;;23.92;45.77;98768.13;4881731;29;20382;-68
2022/09/12 11:19:30;;;;;;;1.65;1.55;;;;;;;23.93;45.87;98761.63;4897195;29;20057;-68
2022/09/12 11:22:23;;;;;;;1.45;1.35;;;;;;;24.07;44.13;98761.78;4881867;29;20147;-68
2022/09/12 11:25:16;;;;;;;1.55;1.45;;;;;;;24.18;44.85;98762.53;4897299;29;20044;-68
2022/09/12 11:28:16;;;;;;;2.15;1.50;;;;;;;24.37;45.19;98752.66;4897150;29;20063;-68
2022/09/12 11:31:01;;;;;;;1.58;1.48;;;;;;;24.47;42.83;98751.75;4898631;29;20045;-68
2022/09/12 11:33:49;;;;;;;1.50;1.40;;;;;;;24.49;43.29;98749.56;4898143;29;20055;-68
2022/09/12 11:36:47;;;;;;;1.50;1.40;;;;;;;24.56;44.01;98750.03;4862903;29;20052;-68
2022/09/12 11:39:16;;;;;;;1.60;1.48;;;;;;;24.70;43.57;98750.19;4878032;29;20064;-68
2022/09/12 11:41:55;;;;;;;1.30;1.20;;;;;;;24.78;43.69;98744.16;4862958;29;20057;-68
2022/09/12 11:44:35;;;;;;;1.42;1.33;;;;;;;24.93;43.01;98745.88;4879561;29;20059;-68
2022/09/12 11:47:12;;;;;;;1.50;1.40;;;;;;;25.10;42.76;98750.84;4893429;29;20114;-68
2022/09/12 11:49:48;;;;;;;1.50;1.40;;;;;;;25.22;42.29;98743.13;4879773;29;20048;-68
2022/09/12 11:52:20;;;;;;;1.27;1.20;;;;;;;25.27;41.47;98744.94;4879359;29;20052;-68
2022/09/12 11:55:02;;;;;;;1.10;1.10;;;;;;;25.29;41.44;98738.16;4880293;29;20060;-68
2022/09/12 11:57:53;;;;;;;1.10;1.10;;;;;;;25.39;40.87;98735.34;4877843;29;20049;-67
2022/09/12 12:00:31;;;;;;;1.35;1.25;;;;;;;25.47;40.72;98739.25;4879238;29;20045;-67
2022/09/12 12:03:07;;;;;;;0.90;0.90;;;;;;;25.58;40.38;98739.94;4888546;29;20417;-68